Time;durP1;ratioP1;P1;durP2;ratioP2;P2;SDS_P1;SDS_P2;PMS_P1;PMS_P2;Temp;Humidity;BMP_temperature;BMP_pressure;BME280_temperature;BME280_humidity;BME280_pressure;Samples;Min_cycle;Max_cycle;Signal;HPM_P1;HPM_P2
2021/07/05 04:00:34;;;;;;;1.80;1.80;;;18.20;99.90;;;;;;5898621;23;20544;-63
2021/07/05 04:03:02;;;;;;;1.47;1.47;;;18.30;99.90;;;;;;4976549;28;20443;-63
2021/07/05 04:05:29;;;;;;;1.57;1.47;;;18.20;99.90;;;;;;4976164;28;20483;-64
2021/07/05 04:07:57;;;;;;;1.57;1.57;;;18.00;99.90;;;;;;4976439;28;20487;-62
2021/07/05 04:10:24;;;;;;;2.40;1.70;;;18.00;99.90;;;;;;4976060;28;20959;-63
2021/07/05 04:12:50;;;;;;;1.37;1.37;;;18.00;99.90;;;;;;4976086;28;20961;-63
2021/07/05 04:15:18;;;;;;;1.43;1.43;;;18.00;99.90;;;;;;4976181;28;20447;-63
2021/07/05 04:17:46;;;;;;;2.00;1.80;;;18.00;99.90;;;;;;4976263;28;20459;-63
2021/07/05 04:20:18;;;;;;;2.60;1.50;;;17.90;99.90;;;;;;4976419;28;20454;-63
2021/07/05 04:22:44;;;;;;;1.90;1.80;;;18.00;99.90;;;;;;4976331;28;20446;-63
2021/07/05 04:25:13;;;;;;;1.50;1.50;;;18.00;99.90;;;;;;4976054;28;20896;-64
2021/07/05 04:27:39;;;;;;;4.23;1.50;;;18.00;99.90;;;;;;4975947;28;20470;-63
2021/07/05 04:30:08;;;;;;;1.50;1.50;;;18.00;99.90;;;;;;4975961;28;20463;-63
2021/07/05 04:32:37;;;;;;;1.67;1.57;;;18.00;99.90;;;;;;4975820;28;20484;-63
2021/07/05 04:35:08;;;;;;;1.67;1.63;;;18.10;99.90;;;;;;4974738;28;20462;-63
2021/07/05 04:37:37;;;;;;;1.60;1.50;;;17.90;99.90;;;;;;4975925;28;20454;-63
2021/07/05 04:40:05;;;;;;;3.00;1.80;;;18.00;99.90;;;;;;4976280;28;20463;-63
2021/07/05 04:42:32;;;;;;;3.63;2.03;;;18.00;99.90;;;;;;4976490;28;20553;-63
2021/07/05 04:44:58;;;;;;;1.30;1.30;;;18.00;99.90;;;;;;4975873;28;20486;-63
2021/07/05 04:47:25;;;;;;;1.77;1.60;;;18.10;99.90;;;;;;4975569;28;20450;-64
2021/07/05 04:49:52;;;;;;;4.83;2.00;;;18.20;99.90;;;;;;4975542;28;20466;-63
2021/07/05 04:52:20;;;;;;;2.63;2.27;;;18.30;99.90;;;;;;4975515;28;20486;-62
2021/07/05 04:54:46;;;;;;;1.50;1.40;;;18.40;99.90;;;;;;4975534;28;20451;-63
2021/07/05 04:57:13;;;;;;;1.63;1.53;;;18.40;99.90;;;;;;4975161;28;20454;-63
2021/07/05 04:59:40;;;;;;;1.60;1.50;;;18.50;99.90;;;;;;4975411;28;20455;-63
2021/07/05 05:02:07;;;;;;;1.90;1.80;;;18.60;99.90;;;;;;4977197;28;20486;-63
2021/07/05 05:04:34;;;;;;;2.63;1.87;;;18.70;99.90;;;;;;4976541;28;20489;-63
2021/07/05 05:07:01;;;;;;;4.20;1.70;;;18.80;99.90;;;;;;4975261;28;20461;-64
2021/07/05 05:09:29;;;;;;;1.70;1.60;;;18.80;99.90;;;;;;4975260;28;20545;-62
2021/07/05 05:11:55;;;;;;;2.03;1.60;;;18.90;99.90;;;;;;4975249;28;20486;-63
2021/07/05 05:14:23;;;;;;;6.60;1.90;;;18.90;99.90;;;;;;4975434;28;20450;-63
2021/07/05 05:16:50;;;;;;;2.33;1.80;;;19.00;99.90;;;;;;4975067;28;20463;-62
2021/07/05 05:19:17;;;;;;;1.90;1.80;;;19.00;99.90;;;;;;4974792;28;20938;-64
2021/07/05 05:21:44;;;;;;;2.93;1.90;;;19.00;99.90;;;;;;4975050;28;20475;-62
2021/07/05 05:24:10;;;;;;;2.60;2.10;;;19.10;99.90;;;;;;4974989;28;20469;-63
2021/07/05 05:26:38;;;;;;;2.63;2.17;;;19.00;99.90;;;;;;4975215;28;20450;-62
2021/07/05 05:29:05;;;;;;;2.30;1.97;;;19.20;99.90;;;;;;4980563;28;20462;-63
2021/07/05 05:31:34;;;;;;;2.27;1.90;;;19.20;99.90;;;;;;4977228;28;20485;-62
2021/07/05 05:34:01;;;;;;;1.80;1.80;;;19.20;99.90;;;;;;4975081;28;20447;-63
2021/07/05 05:36:28;;;;;;;2.70;1.80;;;19.20;99.90;;;;;;4975164;28;20462;-62
2021/07/05 05:38:54;;;;;;;2.67;1.87;;;19.20;99.90;;;;;;4975228;28;20455;-62
2021/07/05 05:41:21;;;;;;;2.33;2.17;;;19.30;99.90;;;;;;4974938;28;20479;-63
2021/07/05 05:43:49;;;;;;;1.90;1.77;;;19.40;99.90;;;;;;4974849;28;20477;-63
2021/07/05 05:46:16;;;;;;;1.93;1.77;;;19.50;99.90;;;;;;4976008;28;20451;-64
2021/07/05 05:48:43;;;;;;;2.70;1.90;;;19.70;99.90;;;;;;4978952;28;20458;-63
2021/07/05 05:51:11;;;;;;;1.77;1.67;;;19.80;99.90;;;;;;4978795;28;20474;-63
2021/07/05 05:53:38;;;;;;;1.80;1.70;;;19.80;99.90;;;;;;4978973;28;20486;-64
2021/07/05 05:56:05;;;;;;;1.80;1.53;;;19.90;99.90;;;;;;4978791;28;20446;-64
2021/07/05 05:58:36;;;;;;;1.57;1.47;;;19.90;99.90;;;;;;4978705;28;20454;-63
2021/07/05 06:01:04;;;;;;;5.80;1.40;;;19.90;99.90;;;;;;4978481;28;20486;-63
2021/07/05 06:03:31;;;;;;;3.07;1.50;;;19.90;99.90;;;;;;4978358;28;20968;-63
2021/07/05 06:05:57;;;;;;;2.00;1.50;;;19.90;99.90;;;;;;4978477;28;20485;-63
2021/07/05 06:08:24;;;;;;;1.83;1.70;;;19.90;99.90;;;;;;4979020;28;20443;-64
2021/07/05 06:10:51;;;;;;;2.60;1.70;;;19.90;99.90;;;;;;4978171;28;21052;-64
2021/07/05 06:13:18;;;;;;;2.40;1.30;;;19.90;99.90;;;;;;4978576;28;20446;-63
2021/07/05 06:15:44;;;;;;;1.70;1.60;;;19.80;99.90;;;;;;4978345;28;20450;-63
2021/07/05 06:18:12;;;;;;;1.73;1.63;;;19.90;99.90;;;;;;4979327;28;20980;-64
2021/07/05 06:20:39;;;;;;;1.87;1.20;;;19.90;99.90;;;;;;4978182;28;20481;-62
2021/07/05 06:23:14;;;;;;;4.53;1.40;;;19.90;99.90;;;;;;4977900;28;21001;-62
2021/07/05 06:25:41;;;;;;;3.47;1.90;;;19.90;99.90;;;;;;4978574;28;20462;-63
2021/07/05 06:28:08;;;;;;;2.07;1.90;;;19.90;99.90;;;;;;4978351;28;20461;-63
2021/07/05 06:30:34;;;;;;;2.20;1.80;;;19.90;99.90;;;;;;4977831;28;20482;-63
2021/07/05 06:33:01;;;;;;;1.90;1.67;;;19.70;99.90;;;;;;4978323;28;20459;-63
2021/07/05 06:35:29;;;;;;;2.63;1.90;;;19.70;99.90;;;;;;4978587;28;20457;-62
2021/07/05 06:37:56;;;;;;;1.43;1.33;;;19.70;99.90;;;;;;4978079;28;20469;-62
2021/07/05 06:40:25;;;;;;;1.90;1.47;;;19.70;99.90;;;;;;4977833;28;20466;-63
2021/07/05 06:42:52;;;;;;;1.77;1.67;;;19.80;99.90;;;;;;4977855;28;20458;-63
2021/07/05 06:45:18;;;;;;;3.63;1.63;;;19.80;99.90;;;;;;4977857;28;20481;-63
2021/07/05 06:47:45;;;;;;;1.93;1.80;;;19.80;99.90;;;;;;4977757;28;20455;-63
2021/07/05 06:50:12;;;;;;;3.03;1.67;;;19.80;99.90;;;;;;4978469;28;20462;-63
2021/07/05 06:52:40;;;;;;;2.00;1.73;;;19.90;99.90;;;;;;4977909;28;20457;-63
2021/07/05 06:55:08;;;;;;;2.00;1.83;;;19.90;99.90;;;;;;4977343;28;20821;-64
2021/07/05 06:57:35;;;;;;;5.33;1.60;;;19.90;99.90;;;;;;4976758;28;20946;-64
2021/07/05 07:00:07;;;;;;;1.40;1.30;;;20.00;99.90;;;;;;4984061;28;20454;-63
2021/07/05 07:02:35;;;;;;;2.37;1.60;;;20.20;99.90;;;;;;4981160;28;20490;-63
2021/07/05 07:05:02;;;;;;;1.60;1.43;;;20.20;99.90;;;;;;4977908;28;20489;-63
2021/07/05 07:07:29;;;;;;;4.90;1.60;;;20.40;99.90;;;;;;4977569;28;20562;-64
2021/07/05 07:09:57;;;;;;;1.97;1.40;;;20.30;99.90;;;;;;4977783;28;20561;-63
2021/07/05 07:12:24;;;;;;;1.70;1.60;;;20.30;99.90;;;;;;4977488;28;20848;-62
2021/07/05 07:14:50;;;;;;;3.57;1.50;;;20.30;99.90;;;;;;4977661;28;20457;-63
2021/07/05 07:17:23;;;;;;;1.80;1.70;;;20.40;99.90;;;;;;4977248;28;20458;-63
2021/07/05 07:19:50;;;;;;;3.70;1.70;;;20.40;99.90;;;;;;4977462;28;20913;-63
2021/07/05 07:22:18;;;;;;;1.90;1.80;;;20.40;99.90;;;;;;4977406;28;20474;-63
2021/07/05 07:24:45;;;;;;;1.93;1.60;;;20.40;99.90;;;;;;4977365;28;20474;-63
2021/07/05 07:27:13;;;;;;;1.70;1.70;;;20.40;99.90;;;;;;4978214;28;20455;-63
2021/07/05 07:29:40;;;;;;;2.30;1.80;;;20.40;99.90;;;;;;4977983;28;20466;-63
2021/07/05 07:32:07;;;;;;;1.90;1.80;;;20.50;99.90;;;;;;4977077;28;20474;-63
2021/07/05 07:34:34;;;;;;;1.70;1.70;;;20.40;99.90;;;;;;4977019;28;20466;-63
2021/07/05 07:37:04;;;;;;;2.57;1.67;;;20.20;99.90;;;;;;4976971;28;20486;-63
2021/07/05 07:39:35;;;;;;;1.30;1.30;;;20.20;99.90;;;;;;4976844;28;20464;-63
2021/07/05 07:42:01;;;;;;;1.67;1.57;;;20.40;99.90;;;;;;4976893;28;20510;-62
2021/07/05 07:44:30;;;;;;;1.47;1.30;;;20.40;99.90;;;;;;4976780;28;20455;-63
2021/07/05 07:46:56;;;;;;;1.80;1.70;;;20.60;99.90;;;;;;4976691;28;20796;-63
2021/07/05 07:49:23;;;;;;;1.57;1.47;;;20.70;99.90;;;;;;4976714;28;20457;-63
2021/07/05 07:51:50;;;;;;;1.53;1.43;;;20.80;99.90;;;;;;4976345;28;20852;-62
2021/07/05 07:54:17;;;;;;;2.30;1.50;;;21.00;99.90;;;;;;4976832;28;20459;-62
2021/07/05 07:56:43;;;;;;;3.23;1.40;;;21.00;99.90;;;;;;4976723;28;20451;-62
2021/07/05 07:59:10;;;;;;;1.40;1.30;;;21.20;99.90;;;;;;4976533;28;20465;-62
2021/07/05 08:01:38;;;;;;;1.57;1.47;;;21.30;99.90;;;;;;4976246;28;20490;-62
2021/07/05 08:04:05;;;;;;;1.60;1.30;;;21.50;99.90;;;;;;4976001;28;20820;-62
2021/07/05 08:06:32;;;;;;;1.87;1.77;;;21.40;99.90;;;;;;4976363;28;20482;-62
2021/07/05 08:09:00;;;;;;;1.90;1.80;;;21.40;99.90;;;;;;4976422;28;20525;-62
2021/07/05 08:11:26;;;;;;;1.30;1.30;;;21.40;99.90;;;;;;4976312;28;20510;-62
2021/07/05 08:13:53;;;;;;;1.97;1.83;;;21.30;99.90;;;;;;4976353;28;20469;-62
2021/07/05 08:16:20;;;;;;;3.40;2.00;;;21.20;99.90;;;;;;4976230;28;20455;-62
2021/07/05 08:18:48;;;;;;;6.03;2.27;;;21.00;99.90;;;;;;4976472;28;20447;-62
2021/07/05 08:21:15;;;;;;;2.53;1.97;;;21.20;99.90;;;;;;4976051;28;20806;-62
2021/07/05 08:23:42;;;;;;;1.90;1.80;;;21.00;99.90;;;;;;4976291;28;20509;-63
2021/07/05 08:26:08;;;;;;;1.50;1.30;;;20.90;99.90;;;;;;4975740;28;20997;-64
2021/07/05 08:28:35;;;;;;;3.70;1.70;;;20.90;99.90;;;;;;4975999;28;20938;-64
2021/07/05 08:31:04;;;;;;;1.50;1.40;;;21.00;99.90;;;;;;4982867;28;20475;-62
2021/07/05 08:33:31;;;;;;;2.20;1.70;;;20.90;99.90;;;;;;4978990;28;20946;-62
2021/07/05 08:36:00;;;;;;;1.63;1.53;;;21.00;99.90;;;;;;4976377;28;20473;-62
2021/07/05 08:38:27;;;;;;;2.27;2.07;;;21.00;99.90;;;;;;4976503;28;20459;-62
2021/07/05 08:40:55;;;;;;;2.13;2.03;;;20.80;99.90;;;;;;4977244;28;20482;-62
2021/07/05 08:43:27;;;;;;;3.50;2.00;;;20.60;99.90;;;;;;4975861;28;20454;-63
2021/07/05 08:45:58;;;;;;;1.50;1.40;;;20.80;99.90;;;;;;4976324;28;20471;-63
2021/07/05 08:48:27;;;;;;;1.97;1.77;;;20.80;99.90;;;;;;4975954;28;20803;-62
2021/07/05 08:50:54;;;;;;;2.50;1.60;;;20.70;99.90;;;;;;4975786;28;20501;-63
2021/07/05 08:53:22;;;;;;;2.27;1.63;;;20.50;99.90;;;;;;4975667;28;20477;-63
2021/07/05 08:55:49;;;;;;;1.70;1.33;;;20.50;99.90;;;;;;4975680;28;20461;-63
2021/07/05 08:58:16;;;;;;;2.87;1.63;;;20.40;99.90;;;;;;4975469;28;20961;-63
2021/07/05 09:00:43;;;;;;;1.80;1.57;;;20.40;99.90;;;;;;4976074;28;21033;-64
2021/07/05 09:03:10;;;;;;;2.83;1.40;;;20.40;99.90;;;;;;4975587;28;20443;-62
2021/07/05 09:05:37;;;;;;;2.67;1.53;;;20.60;99.90;;;;;;4975350;28;20532;-62
2021/07/05 09:08:06;;;;;;;2.03;1.90;;;20.40;99.90;;;;;;4975418;28;20458;-63
2021/07/05 09:10:47;;;;;;;1.70;1.60;;;20.30;99.90;;;;;;4975245;28;20982;-62
2021/07/05 09:13:19;;;;;;;1.60;1.50;;;20.30;99.90;;;;;;4975262;28;20450;-63
2021/07/05 09:15:48;;;;;;;1.70;1.60;;;20.40;99.90;;;;;;4977024;28;20438;-63
2021/07/05 09:18:29;;;;;;;1.70;1.60;;;20.20;99.90;;;;;;4982120;28;20819;-63
2021/07/05 09:20:59;;;;;;;1.43;1.33;;;20.10;99.90;;;;;;4980464;28;20986;-63
2021/07/05 09:23:26;;;;;;;1.60;1.50;;;20.10;99.90;;;;;;4975492;28;20515;-62
2021/07/05 09:25:54;;;;;;;1.43;1.43;;;20.00;99.90;;;;;;4975313;28;20482;-62
2021/07/05 09:28:23;;;;;;;2.20;2.10;;;19.80;99.90;;;;;;4975303;28;20509;-62
2021/07/05 09:30:51;;;;;;;1.87;1.77;;;19.70;99.90;;;;;;4975068;28;20882;-62
2021/07/05 09:33:20;;;;;;;1.93;1.80;;;19.70;99.90;;;;;;4975053;28;20465;-62
2021/07/05 09:35:49;;;;;;;3.37;1.83;;;19.70;99.90;;;;;;4975254;28;20830;-62
2021/07/05 09:38:29;;;;;;;2.00;1.80;;;19.90;99.90;;;;;;4975659;28;20459;-62
2021/07/05 09:40:58;;;;;;;4.17;2.17;;;20.00;99.90;;;;;;4974920;28;20485;-63
2021/07/05 09:43:27;;;;;;;2.70;1.77;;;20.00;99.90;;;;;;4975128;28;20481;-63
2021/07/05 09:45:54;;;;;;;2.30;1.90;;;20.10;99.90;;;;;;4975101;28;20482;-63
2021/07/05 09:48:24;;;;;;;2.07;1.80;;;19.90;99.90;;;;;;4975240;28;20454;-63
2021/07/05 09:50:58;;;;;;;1.83;1.50;;;19.90;99.90;;;;;;4975787;28;20537;-62
2021/07/05 09:53:27;;;;;;;1.30;1.30;;;19.80;99.90;;;;;;4975088;28;20474;-63
2021/07/05 09:55:54;;;;;;;0.97;0.97;;;19.60;99.90;;;;;;4975158;28;20451;-62
2021/07/05 09:58:32;;;;;;;1.73;1.63;;;19.50;99.90;;;;;;4975287;28;20458;-63
2021/07/05 10:00:59;;;;;;;2.33;1.67;;;19.40;99.90;;;;;;4974921;28;20514;-62
2021/07/05 10:03:35;;;;;;;1.63;1.60;;;19.50;99.90;;;;;;4990525;28;20480;-62
2021/07/05 10:06:15;;;;;;;1.87;1.70;;;19.50;99.90;;;;;;4974931;28;20470;-62
2021/07/05 10:08:42;;;;;;;2.47;2.10;;;19.30;99.90;;;;;;4978292;28;20438;-62
2021/07/05 10:11:09;;;;;;;1.20;1.20;;;19.30;99.90;;;;;;4980792;28;20485;-62
2021/07/05 10:13:37;;;;;;;2.00;1.90;;;19.20;99.90;;;;;;4979150;28;20455;-62
2021/07/05 10:16:06;;;;;;;1.90;1.80;;;19.00;99.90;;;;;;4977269;28;20481;-62
2021/07/05 10:18:33;;;;;;;2.00;1.90;;;18.90;99.90;;;;;;4976542;28;20887;-62
2021/07/05 10:21:00;;;;;;;4.77;2.03;;;18.70;99.90;;;;;;4975481;28;20481;-63
2021/07/05 10:23:27;;;;;;;2.70;2.10;;;18.60;99.90;;;;;;4974851;28;20462;-62
2021/07/05 10:25:53;;;;;;;1.67;1.57;;;18.60;99.90;;;;;;4974730;28;20478;-63
2021/07/05 10:28:21;;;;;;;2.20;1.43;;;18.50;99.90;;;;;;4974703;28;20455;-63
2021/07/05 10:30:52;;;;;;;11.03;1.87;;;18.40;99.90;;;;;;4975016;28;20475;-63
2021/07/05 10:33:19;;;;;;;1.30;1.20;;;18.40;99.90;;;;;;4975659;28;20526;-62
2021/07/05 10:35:49;;;;;;;3.90;1.23;;;18.40;99.90;;;;;;4979024;28;20473;-62
2021/07/05 10:38:19;;;;;;;1.80;1.70;;;18.40;99.90;;;;;;4979596;28;20830;-62
2021/07/05 10:40:49;;;;;;;1.03;0.93;;;18.40;99.90;;;;;;4979104;28;20481;-63
2021/07/05 10:43:17;;;;;;;1.57;1.20;;;18.50;99.90;;;;;;4978946;28;20841;-61
2021/07/05 10:45:46;;;;;;;1.40;1.30;;;18.40;99.90;;;;;;4977576;28;20478;-62
2021/07/05 10:48:15;;;;;;;1.30;1.30;;;18.50;99.90;;;;;;4977789;28;20462;-63
2021/07/05 10:50:52;;;;;;;1.80;1.70;;;18.50;99.90;;;;;;4977655;28;20986;-62
2021/07/05 10:53:20;;;;;;;1.73;1.63;;;18.50;99.90;;;;;;4977950;28;20454;-63
2021/07/05 10:55:49;;;;;;;1.57;1.57;;;18.60;99.90;;;;;;4977839;28;20450;-63
2021/07/05 10:58:19;;;;;;;1.40;1.30;;;18.60;99.90;;;;;;4977859;28;20464;-62
2021/07/05 11:00:47;;;;;;;1.27;1.27;;;18.80;99.90;;;;;;4977542;28;20493;-62
2021/07/05 11:03:46;;;;;;;1.23;1.13;;;18.90;99.90;;;;;;4977929;28;20546;-62
2021/07/05 11:06:40;;;;;;;3.43;1.30;;;19.00;99.90;;;;;;4977516;28;20478;-62
2021/07/05 11:09:07;;;;;;;1.40;1.30;;;19.30;99.90;;;;;;4975888;28;20461;-62
2021/07/05 11:11:35;;;;;;;1.20;1.20;;;19.50;99.90;;;;;;4977633;28;20470;-63
2021/07/05 11:14:18;;;;;;;2.80;1.30;;;19.70;99.90;;;;;;4977492;28;20446;-62
2021/07/05 11:16:53;;;;;;;1.00;1.00;;;19.70;99.90;;;;;;4977679;28;20435;-62
2021/07/05 11:19:36;;;;;;;1.97;1.63;;;19.70;99.90;;;;;;4977812;28;20453;-62
2021/07/05 11:22:07;;;;;;;2.97;1.40;;;19.90;99.90;;;;;;4977538;28;20617;-62
2021/07/05 11:24:52;;;;;;;1.23;1.13;;;20.00;99.90;;;;;;4977830;28;20439;-60
2021/07/05 11:27:47;;;;;;;2.77;1.40;;;20.20;99.90;;;;;;4978238;28;20486;-61
2021/07/05 11:30:24;;;;;;;2.73;1.60;;;20.20;99.90;;;;;;4977595;28;20415;-62
2021/07/05 11:32:54;;;;;;;1.60;1.50;;;20.20;99.90;;;;;;4982456;28;20447;-62
2021/07/05 11:35:31;;;;;;;1.50;1.40;;;20.00;99.90;;;;;;4985223;28;20890;-65
2021/07/05 11:38:00;;;;;;;1.77;1.77;;;19.90;99.90;;;;;;4977659;28;20442;-62
2021/07/05 11:40:45;;;;;;;1.60;1.50;;;19.80;99.90;;;;;;4977267;28;20465;-63
2021/07/05 11:43:13;;;;;;;2.10;1.57;;;19.90;99.90;;;;;;4976691;28;20455;-62
2021/07/05 11:45:46;;;;;;;2.27;1.87;;;19.90;99.90;;;;;;4976710;28;20461;-62
2021/07/05 11:48:46;;;;;;;1.73;1.63;;;19.90;99.90;;;;;;4977147;28;20439;-62
2021/07/05 11:51:18;;;;;;;6.13;1.60;;;20.00;99.90;;;;;;4977018;28;20889;-62
2021/07/05 11:53:49;;;;;;;1.93;1.80;;;19.80;99.90;;;;;;4976851;28;20961;-63
2021/07/05 11:56:26;;;;;;;1.60;1.50;;;19.80;99.90;;;;;;4977500;28;20494;-63
2021/07/05 11:58:53;;;;;;;1.40;1.40;;;19.70;99.90;;;;;;4977130;28;20442;-62
2021/07/05 12:01:20;;;;;;;2.23;2.00;;;19.70;99.90;;;;;;4976536;28;20489;-63
2021/07/05 12:03:50;;;;;;;1.70;1.60;;;19.80;99.90;;;;;;4977105;28;20454;-62
2021/07/05 12:06:18;;;;;;;1.90;1.80;;;19.80;99.90;;;;;;4976862;28;20478;-62
2021/07/05 12:08:52;;;;;;;2.23;1.87;;;19.90;99.90;;;;;;4977029;28;20800;-62
2021/07/05 12:11:40;;;;;;;4.77;1.80;;;20.00;99.90;;;;;;4977366;28;20475;-62
2021/07/05 12:14:13;;;;;;;1.80;1.70;;;20.30;99.90;;;;;;4977215;28;20486;-62
2021/07/05 12:16:41;;;;;;;1.90;1.80;;;20.60;99.90;;;;;;4976531;28;20938;-62
2021/07/05 12:19:09;;;;;;;2.50;1.40;;;21.00;99.90;;;;;;4976688;28;20466;-63
2021/07/05 12:21:40;;;;;;;1.63;1.53;;;21.20;99.90;;;;;;4976547;28;20475;-62
2021/07/05 12:24:16;;;;;;;2.80;1.60;;;21.30;99.90;;;;;;4977037;28;20459;-62
2021/07/05 12:26:45;;;;;;;1.70;1.70;;;21.30;99.90;;;;;;4983616;28;20462;-63
2021/07/05 12:29:16;;;;;;;2.33;1.60;;;21.40;99.90;;;;;;4980946;28;20461;-63
2021/07/05 12:32:04;;;;;;;2.13;1.80;;;21.30;99.90;;;;;;4977350;28;20999;-64
2021/07/05 12:34:56;;;;;;;1.83;1.50;;;21.40;99.90;;;;;;4977600;28;20498;-63
2021/07/05 12:37:37;;;;;;;1.90;1.80;;;21.40;99.90;;;;;;4977230;28;20446;-63
2021/07/05 12:40:12;;;;;;;1.73;1.63;;;21.20;99.90;;;;;;4976399;28;20439;-63
2021/07/05 12:42:41;;;;;;;2.20;1.40;;;21.20;99.90;;;;;;4976495;28;20492;-62
2021/07/05 12:45:12;;;;;;;3.50;1.60;;;21.20;99.90;;;;;;4976238;28;20451;-63
2021/07/05 12:47:56;;;;;;;1.90;1.80;;;21.20;99.90;;;;;;4976038;28;20799;-63
2021/07/05 12:50:26;;;;;;;1.60;1.50;;;21.20;99.90;;;;;;4985850;28;20443;-62
2021/07/05 12:53:20;;;;;;;2.07;1.70;;;21.40;99.90;;;;;;4986601;28;20461;-63
2021/07/05 12:55:56;;;;;;;1.87;1.27;;;21.50;99.90;;;;;;4977496;28;20525;-62
2021/07/05 12:58:44;;;;;;;1.63;1.50;;;21.70;99.90;;;;;;4978701;28;20910;-63
2021/07/05 13:01:13;;;;;;;2.03;1.43;;;21.90;99.90;;;;;;4979253;28;20574;-63
2021/07/05 13:03:54;;;;;;;2.20;1.63;;;22.20;99.90;;;;;;4979522;28;20804;-63
2021/07/05 13:06:21;;;;;;;1.50;1.40;;;22.40;99.90;;;;;;4982598;28;20805;-62
2021/07/05 13:08:55;;;;;;;2.00;1.70;;;22.70;99.90;;;;;;4975937;28;20450;-63
2021/07/05 13:11:22;;;;;;;2.10;2.00;;;22.70;99.90;;;;;;4975664;28;20517;-62
2021/07/05 13:13:49;;;;;;;1.87;1.77;;;22.70;99.90;;;;;;4975741;28;20478;-62
2021/07/05 13:16:18;;;;;;;3.93;1.50;;;22.80;99.90;;;;;;4976110;28;20501;-62
2021/07/05 13:18:45;;;;;;;3.83;1.33;;;22.90;99.90;;;;;;4975183;28;20450;-63
2021/07/05 13:21:12;;;;;;;1.27;1.27;;;23.40;99.90;;;;;;4976695;28;20478;-63
2021/07/05 13:23:43;;;;;;;1.93;1.20;;;23.80;99.90;;;;;;4975789;28;20975;-63
2021/07/05 13:26:12;;;;;;;4.53;1.40;;;23.70;99.90;;;;;;4976277;28;20559;-63
2021/07/05 13:28:46;;;;;;;2.57;1.30;;;24.00;99.90;;;;;;4975581;28;20517;-63
2021/07/05 13:31:31;;;;;;;2.60;0.90;;;24.20;99.90;;;;;;4975540;28;20569;-63
2021/07/05 13:33:58;;;;;;;0.87;0.83;;;24.00;99.90;;;;;;4975590;28;20439;-62
2021/07/05 13:36:25;;;;;;;0.80;0.80;;;23.90;99.90;;;;;;4975647;28;20454;-62
2021/07/05 13:38:53;;;;;;;1.17;0.80;;;23.90;99.90;;;;;;4983201;28;20454;-62
2021/07/05 13:41:22;;;;;;;0.80;0.80;;;23.50;99.90;;;;;;4975440;28;20837;-62
2021/07/05 13:43:50;;;;;;;1.70;0.80;;;23.50;99.90;;;;;;4975298;28;20462;-62
2021/07/05 13:46:17;;;;;;;2.83;0.77;;;23.50;99.90;;;;;;4975197;28;20459;-62
2021/07/05 13:48:43;;;;;;;0.80;0.80;;;23.50;99.90;;;;;;4975102;28;20461;-62
2021/07/05 13:51:12;;;;;;;0.80;0.80;;;23.20;99.90;;;;;;4975189;28;20478;-62
2021/07/05 13:53:41;;;;;;;0.90;0.90;;;23.10;99.90;;;;;;4975261;28;20443;-62
2021/07/05 13:56:10;;;;;;;0.80;0.80;;;23.20;99.90;;;;;;4975490;28;20459;-62
2021/07/05 13:58:44;;;;;;;0.87;0.87;;;23.30;99.90;;;;;;4975083;28;20450;-63
2021/07/05 14:01:15;;;;;;;5.47;1.20;;;23.20;99.90;;;;;;4974817;28;20515;-62
2021/07/05 14:03:42;;;;;;;4.43;1.13;;;22.90;99.90;;;;;;4974740;28;20486;-62
2021/07/05 14:06:10;;;;;;;4.30;1.20;;;22.60;99.90;;;;;;4974774;28;20817;-62
2021/07/05 14:08:38;;;;;;;1.63;1.53;;;22.40;99.90;;;;;;4977926;28;20470;-63
2021/07/05 14:11:06;;;;;;;1.63;1.53;;;22.30;99.90;;;;;;4979009;28;20487;-62
2021/07/05 14:13:35;;;;;;;0.90;0.90;;;22.30;99.90;;;;;;4979149;28;20458;-63
2021/07/05 14:16:05;;;;;;;3.10;0.80;;;22.20;99.90;;;;;;4978822;28;20481;-62
2021/07/05 14:18:32;;;;;;;0.97;0.97;;;22.10;99.90;;;;;;4978679;28;20446;-62
2021/07/05 14:20:59;;;;;;;1.57;0.87;;;21.90;99.90;;;;;;4978657;28;20481;-63
2021/07/05 14:23:27;;;;;;;2.20;1.00;;;22.00;99.90;;;;;;4979163;28;20799;-62
2021/07/05 14:25:57;;;;;;;0.83;0.83;;;22.10;99.90;;;;;;4978882;28;20442;-61
2021/07/05 14:28:24;;;;;;;1.20;1.20;;;22.10;99.90;;;;;;4978496;28;20463;-63
2021/07/05 14:30:53;;;;;;;1.30;1.20;;;22.20;99.90;;;;;;4978802;28;20478;-63
2021/07/05 14:33:22;;;;;;;1.17;1.17;;;22.30;99.90;;;;;;4980431;28;20505;-62
2021/07/05 14:35:49;;;;;;;0.90;0.90;;;22.30;99.90;;;;;;4986458;28;20450;-63
2021/07/05 14:38:15;;;;;;;1.47;1.30;;;22.30;99.90;;;;;;4983625;28;20938;-62
2021/07/05 14:40:43;;;;;;;0.90;0.90;;;22.50;99.90;;;;;;4978594;28;20474;-63
2021/07/05 14:43:12;;;;;;;0.60;0.60;;;22.60;99.90;;;;;;4979299;28;20454;-63
2021/07/05 14:45:38;;;;;;;0.90;0.90;;;22.50;99.90;;;;;;4978503;28;20485;-61
2021/07/05 14:48:06;;;;;;;0.80;0.73;;;22.60;99.90;;;;;;4978686;28;20994;-62
2021/07/05 14:50:34;;;;;;;0.80;0.80;;;22.70;99.90;;;;;;4978775;28;20478;-63
2021/07/05 14:53:05;;;;;;;0.93;0.90;;;22.80;99.90;;;;;;4978364;28;20535;-62
2021/07/05 14:55:32;;;;;;;0.63;0.63;;;22.90;99.90;;;;;;4979159;28;20781;-62
2021/07/05 14:57:59;;;;;;;1.03;1.03;;;23.10;99.90;;;;;;4978875;28;20461;-62
2021/07/05 15:00:28;;;;;;;2.10;1.00;;;23.20;99.90;;;;;;4978160;28;20454;-63
2021/07/05 15:02:55;;;;;;;3.53;0.90;;;23.20;99.90;;;;;;4978463;28;20902;-63
2021/07/05 15:05:23;;;;;;;1.53;0.87;;;23.10;99.90;;;;;;4978867;28;20450;-63
2021/07/05 15:07:51;;;;;;;1.37;1.00;;;23.10;99.90;;;;;;4979114;28;20474;-63
2021/07/05 15:10:20;;;;;;;0.90;0.90;;;23.00;99.90;;;;;;4981945;28;20459;-63
2021/07/05 15:12:49;;;;;;;0.90;0.90;;;23.00;99.90;;;;;;4990009;28;20557;-63
2021/07/05 15:15:16;;;;;;;1.10;1.10;;;23.00;99.90;;;;;;4979650;28;20459;-64
2021/07/05 15:17:43;;;;;;;1.00;1.00;;;23.00;99.90;;;;;;4978465;28;20447;-64
2021/07/05 15:20:14;;;;;;;1.10;1.10;;;23.10;99.90;;;;;;4977791;28;20450;-63
2021/07/05 15:22:41;;;;;;;2.13;1.30;;;22.90;99.90;;;;;;4978132;28;20985;-64
2021/07/05 15:25:12;;;;;;;0.80;0.80;;;22.90;99.90;;;;;;4978176;28;20459;-62
2021/07/05 15:27:39;;;;;;;1.27;1.03;;;22.90;99.90;;;;;;4978122;28;20463;-62
2021/07/05 15:30:08;;;;;;;1.03;1.00;;;22.90;99.90;;;;;;4978200;28;20938;-62
2021/07/05 15:32:36;;;;;;;1.13;1.00;;;22.80;99.90;;;;;;4977999;28;20481;-63
2021/07/05 15:35:04;;;;;;;1.10;1.10;;;22.90;99.90;;;;;;4977641;28;20542;-63
2021/07/05 15:37:31;;;;;;;1.03;1.00;;;23.00;99.90;;;;;;4977803;28;20458;-62
2021/07/05 15:39:57;;;;;;;1.40;1.30;;;23.10;99.90;;;;;;4977234;28;20459;-63
2021/07/05 15:42:26;;;;;;;1.13;1.13;;;23.20;99.90;;;;;;4977593;28;20506;-63
2021/07/05 15:44:53;;;;;;;1.70;1.00;;;23.30;99.90;;;;;;4977699;28;20458;-62
2021/07/05 15:47:20;;;;;;;1.13;1.13;;;23.30;99.90;;;;;;4978203;28;20514;-62
2021/07/05 15:49:47;;;;;;;1.10;1.10;;;23.40;99.90;;;;;;4979836;28;20465;-62
2021/07/05 15:52:13;;;;;;;3.00;2.80;;;23.40;99.90;;;;;;4977283;28;20851;-63
2021/07/05 15:54:40;;;;;;;0.97;0.97;;;23.40;99.90;;;;;;4977740;28;20462;-63
2021/07/05 15:57:07;;;;;;;1.77;1.07;;;23.40;99.90;;;;;;4978339;28;20818;-63
2021/07/05 15:59:35;;;;;;;1.40;1.30;;;23.50;99.90;;;;;;4978172;28;20454;-63
2021/07/05 16:02:01;;;;;;;1.70;1.60;;;23.50;99.90;;;;;;4976734;28;20490;-62
2021/07/05 16:04:28;;;;;;;1.30;1.30;;;23.50;99.90;;;;;;4977149;28;20462;-62
2021/07/05 16:06:55;;;;;;;2.00;1.40;;;23.80;99.90;;;;;;4982448;28;20451;-63
2021/07/05 16:09:21;;;;;;;2.00;1.40;;;23.80;99.90;;;;;;4982072;28;20478;-62
2021/07/05 16:11:48;;;;;;;1.47;1.37;;;23.70;99.90;;;;;;4976853;28;20478;-63
2021/07/05 16:14:15;;;;;;;1.23;1.13;;;23.80;99.90;;;;;;4977622;28;20463;-63
2021/07/05 16:16:43;;;;;;;1.43;1.33;;;23.90;99.90;;;;;;4976947;28;20517;-62
2021/07/05 16:19:10;;;;;;;3.33;1.20;;;24.10;99.90;;;;;;4976439;28;20462;-63
2021/07/05 16:21:36;;;;;;;1.63;1.20;;;24.10;99.90;;;;;;4976281;28;20845;-63
2021/07/05 16:24:03;;;;;;;0.90;0.90;;;24.20;99.90;;;;;;4976837;28;20462;-63
2021/07/05 16:26:30;;;;;;;1.27;0.97;;;24.30;99.90;;;;;;4977962;28;20462;-63
2021/07/05 16:28:57;;;;;;;1.00;1.00;;;24.40;99.90;;;;;;4979502;28;20486;-63
2021/07/05 16:31:24;;;;;;;1.40;1.30;;;24.50;99.90;;;;;;4978366;28;20479;-64
2021/07/05 16:33:52;;;;;;;1.20;1.10;;;24.40;99.90;;;;;;4979183;28;20481;-63
2021/07/05 16:36:19;;;;;;;1.23;1.03;;;24.30;99.90;;;;;;4977963;28;20469;-63
2021/07/05 16:38:46;;;;;;;1.20;1.10;;;24.50;99.90;;;;;;4977080;28;20455;-63
2021/07/05 16:41:13;;;;;;;1.97;1.27;;;24.50;99.90;;;;;;4976717;28;20485;-63
2021/07/05 16:43:41;;;;;;;0.97;0.97;;;24.30;99.90;;;;;;4976424;28;20454;-62
2021/07/05 16:46:08;;;;;;;1.60;1.13;;;24.20;99.90;;;;;;4976281;28;20451;-62
2021/07/05 16:48:36;;;;;;;1.20;1.20;;;24.20;99.90;;;;;;4976383;28;20478;-62
2021/07/05 16:51:12;;;;;;;1.33;1.33;;;24.20;99.90;;;;;;4976023;28;20480;-64
2021/07/05 16:53:41;;;;;;;1.50;1.00;;;24.30;99.90;;;;;;4975841;28;20501;-63
2021/07/05 16:56:13;;;;;;;1.17;1.10;;;24.20;99.90;;;;;;4975843;28;20459;-62
2021/07/05 16:58:41;;;;;;;1.77;1.70;;;24.20;99.90;;;;;;4976410;28;20439;-63